createdAt,value
2018-03-30T00:00:52.605Z,1001
2018-03-30T00:01:55.337Z,1001.1
2018-03-30T00:02:57.756Z,1001.1
2018-03-30T00:04:00.188Z,1001.1
2018-03-30T00:05:02.608Z,1001.1
2018-03-30T00:06:05.049Z,1001.1
2018-03-30T00:07:07.463Z,1001.2
2018-03-30T00:08:09.885Z,1001.2
2018-03-30T00:09:12.309Z,1001.3
2018-03-30T00:10:14.730Z,1001.3
2018-03-30T00:11:17.160Z,1001.2
2018-03-30T00:12:19.587Z,1001.2
2018-03-30T00:13:21.996Z,1001.2
2018-03-30T00:14:24.424Z,1001.2
2018-03-30T00:15:27.428Z,1001.2
2018-03-30T00:16:29.846Z,1001.3
2018-03-30T00:17:32.266Z,1001.2
2018-03-30T00:18:34.993Z,1001.3
2018-03-30T00:19:37.411Z,1001.3
2018-03-30T00:20:39.854Z,1001.3
2018-03-30T00:21:42.559Z,1001.3
2018-03-30T00:22:44.990Z,1001.3
2018-03-30T00:23:47.729Z,1001.4
2018-03-30T00:24:50.153Z,1001.4
2018-03-30T00:25:52.866Z,1001.3
2018-03-30T00:26:55.293Z,1001.3
2018-03-30T00:27:58.000Z,1001.3
2018-03-30T00:29:00.703Z,1001.3
2018-03-30T00:30:03.141Z,1001.3
2018-03-30T00:31:05.573Z,1001.2
2018-03-30T00:32:07.994Z,1001.2
2018-03-30T00:33:10.423Z,1001.2
2018-03-30T00:34:12.845Z,1001.1
2018-03-30T00:35:15.573Z,1001.2
2018-03-30T00:36:18.007Z,1001.1
2018-03-30T00:37:20.413Z,1001.1
2018-03-30T00:38:22.833Z,1001.2
2018-03-30T00:39:25.273Z,1001.2
2018-03-30T00:40:27.972Z,1001.2
2018-03-30T00:41:30.398Z,1001.3
2018-03-30T00:42:32.827Z,1001.3
2018-03-30T00:43:35.255Z,1001.2
2018-03-30T00:44:37.697Z,1001.2
2018-03-30T00:45:40.120Z,1001.1
2018-03-30T00:46:42.540Z,1001.2
2018-03-30T00:47:44.975Z,1001.1
2018-03-30T00:48:47.387Z,1001.2
2018-03-30T00:49:49.817Z,1001.1
2018-03-30T00:50:52.248Z,1001.1
2018-03-30T00:51:54.664Z,1001.1
2018-03-30T00:52:57.373Z,1001.1
2018-03-30T00:53:59.805Z,1001.1
2018-03-30T00:55:02.521Z,1001.1
2018-03-30T00:56:05.225Z,1001.1
2018-03-30T00:57:07.656Z,1001.2
2018-03-30T00:58:10.095Z,1001.2
2018-03-30T00:59:12.514Z,1001.2
2018-03-30T01:00:14.944Z,1001.3
2018-03-30T01:01:17.378Z,1001.3
2018-03-30T01:02:19.806Z,1001.3
2018-03-30T01:03:22.516Z,1001.4
2018-03-30T01:04:24.935Z,1001.4
2018-03-30T01:05:27.374Z,1001.4
2018-03-30T01:06:29.810Z,1001.4
2018-03-30T01:07:32.512Z,1001.5
2018-03-30T01:08:35.220Z,1001.5
2018-03-30T01:09:37.930Z,1001.5
2018-03-30T01:10:40.364Z,1001.5
2018-03-30T01:11:42.792Z,1001.4
2018-03-30T01:12:45.197Z,1001.4
2018-03-30T01:13:47.631Z,1001.3
2018-03-30T01:14:50.062Z,1001.3
2018-03-30T01:15:52.487Z,1001.3
2018-03-30T01:16:54.914Z,1001.3
2018-03-30T01:17:57.322Z,1001.3
2018-03-30T01:18:59.742Z,1001.3
2018-03-30T01:20:02.472Z,1001.3
2018-03-30T01:21:04.891Z,1001.3
2018-03-30T01:22:07.600Z,1001.3
2018-03-30T01:23:10.022Z,1001.3
2018-03-30T01:24:12.448Z,1001.4
2018-03-30T01:25:14.885Z,1001.4
2018-03-30T01:26:17.317Z,1001.4
2018-03-30T01:27:19.729Z,1001.4
2018-03-30T01:28:22.153Z,1001.5
2018-03-30T01:29:24.588Z,1001.5
2018-03-30T01:30:27.015Z,1001.5
2018-03-30T01:31:29.434Z,1001.5
2018-03-30T01:32:31.868Z,1001.5
2018-03-30T01:33:34.286Z,1001.6
2018-03-30T01:34:36.989Z,1001.5
2018-03-30T01:35:39.424Z,1001.5
2018-03-30T01:36:41.835Z,1001.5
2018-03-30T01:37:44.268Z,1001.5
2018-03-30T01:38:46.696Z,1001.5
2018-03-30T01:39:49.120Z,1001.6
2018-03-30T01:40:51.549Z,1001.5
2018-03-30T01:41:53.972Z,1001.6
2018-03-30T01:42:56.675Z,1001.5
2018-03-30T01:43:59.117Z,1001.5
2018-03-30T01:45:01.832Z,1001.5
2018-03-30T01:46:04.271Z,1001.5
2018-03-30T01:47:06.989Z,1001.5
2018-03-30T01:48:09.689Z,1001.6
2018-03-30T01:49:12.112Z,1001.6
2018-03-30T01:50:14.543Z,1001.6
2018-03-30T01:51:17.246Z,1001.6
2018-03-30T01:52:19.676Z,1001.6
2018-03-30T01:53:22.096Z,1001.6
2018-03-30T01:54:24.817Z,1001.6
2018-03-30T01:55:27.244Z,1001.6
2018-03-30T01:56:29.674Z,1001.6
2018-03-30T01:57:32.107Z,1001.6
2018-03-30T01:58:34.532Z,1001.6
2018-03-30T01:59:37.238Z,1001.6
2018-03-30T02:00:40.227Z,1001.6
2018-03-30T02:01:42.646Z,1001.6
2018-03-30T02:02:45.370Z,1001.5
2018-03-30T02:03:47.790Z,1001.5
2018-03-30T02:04:50.221Z,1001.5
2018-03-30T02:05:52.639Z,1001.5
2018-03-30T02:06:55.070Z,1001.6
2018-03-30T02:07:57.499Z,1001.6
2018-03-30T02:08:59.925Z,1001.6
2018-03-30T02:10:02.342Z,1001.7
2018-03-30T02:11:04.766Z,1001.7
2018-03-30T02:12:07.192Z,1001.7
2018-03-30T02:13:09.615Z,1001.7
2018-03-30T02:14:12.360Z,1001.7
2018-03-30T02:15:14.776Z,1001.8
2018-03-30T02:16:17.200Z,1001.7
2018-03-30T02:17:19.634Z,1001.7
2018-03-30T02:18:22.342Z,1001.7
2018-03-30T02:19:25.342Z,1001.7
2018-03-30T02:20:28.051Z,1001.7
2018-03-30T02:21:30.478Z,1001.8
2018-03-30T02:22:32.908Z,1001.7
2018-03-30T02:23:35.341Z,1001.7
2018-03-30T02:24:38.055Z,1001.8
2018-03-30T02:25:40.767Z,1001.8
2018-03-30T02:26:43.195Z,1001.8
2018-03-30T02:27:45.626Z,1001.8
2018-03-30T02:28:48.052Z,1001.8
2018-03-30T02:29:50.476Z,1001.8
2018-03-30T02:30:52.897Z,1001.8
2018-03-30T02:31:55.626Z,1001.9
2018-03-30T02:32:58.057Z,1001.8
2018-03-30T02:34:00.485Z,1001.9
2018-03-30T02:35:03.194Z,1001.8
2018-03-30T02:36:05.629Z,1001.8
2018-03-30T02:37:08.047Z,1001.8
2018-03-30T02:38:10.468Z,1001.8
2018-03-30T02:39:12.902Z,1001.8
2018-03-30T02:40:15.323Z,1001.8
2018-03-30T02:41:17.760Z,1001.8
2018-03-30T02:42:20.191Z,1001.8
2018-03-30T02:43:22.611Z,1001.8
2018-03-30T02:44:25.332Z,1001.9
2018-03-30T02:45:27.762Z,1001.9
2018-03-30T02:46:30.191Z,1001.9
2018-03-30T02:47:32.627Z,1001.9
2018-03-30T02:48:35.071Z,1001.9
2018-03-30T02:49:37.780Z,1001.8
2018-03-30T02:50:40.225Z,1001.8
2018-03-30T02:51:42.648Z,1001.8
2018-03-30T02:52:45.392Z,1001.9
2018-03-30T02:53:48.114Z,1001.8
2018-03-30T02:54:50.542Z,1001.9
2018-03-30T02:55:52.957Z,1001.8
2018-03-30T02:56:55.385Z,1001.9
2018-03-30T02:57:57.810Z,1001.8
2018-03-30T02:59:00.236Z,1001.8
2018-03-30T03:00:02.976Z,1001.9
2018-03-30T03:01:05.390Z,1001.8
2018-03-30T03:02:07.826Z,1001.8
2018-03-30T03:03:10.251Z,1001.8
2018-03-30T03:04:13.264Z,1001.8
2018-03-30T03:05:16.001Z,1001.8
2018-03-30T03:06:18.426Z,1001.8
2018-03-30T03:07:21.424Z,1001.8
2018-03-30T03:08:23.856Z,1001.8
2018-03-30T03:09:26.270Z,1001.8
2018-03-30T03:10:28.700Z,1001.8
2018-03-30T03:11:31.129Z,1001.8
2018-03-30T03:12:33.558Z,1001.8
2018-03-30T03:13:35.981Z,1001.7
2018-03-30T03:14:38.711Z,1001.7
2018-03-30T03:15:41.124Z,1001.7
2018-03-30T03:16:43.853Z,1001.7
2018-03-30T03:17:46.271Z,1001.7
2018-03-30T03:18:48.693Z,1001.7
2018-03-30T03:19:51.411Z,1001.7
2018-03-30T03:20:54.138Z,1001.7
2018-03-30T03:21:56.562Z,1001.6
2018-03-30T03:22:58.996Z,1001.7
2018-03-30T03:24:01.406Z,1001.7
2018-03-30T03:25:04.121Z,1001.7
2018-03-30T03:26:06.549Z,1001.7
2018-03-30T03:27:08.975Z,1001.6
2018-03-30T03:28:11.410Z,1001.6
2018-03-30T03:29:14.131Z,1001.7
2018-03-30T03:30:16.558Z,1001.6
2018-03-30T03:31:18.985Z,1001.7
2018-03-30T03:32:21.415Z,1001.7
2018-03-30T03:33:23.857Z,1001.7
2018-03-30T03:34:26.271Z,1001.7
2018-03-30T03:35:28.988Z,1001.7
2018-03-30T03:36:31.419Z,1001.7
2018-03-30T03:37:33.845Z,1001.7
2018-03-30T03:38:36.277Z,1001.6
2018-03-30T03:39:38.704Z,1001.7
2018-03-30T03:40:41.124Z,1001.7
2018-03-30T03:41:43.839Z,1001.7
2018-03-30T03:42:46.265Z,1001.7
2018-03-30T03:43:48.692Z,1001.7
2018-03-30T03:44:51.120Z,1001.7
2018-03-30T03:45:53.549Z,1001.7
2018-03-30T03:46:55.976Z,1001.7
2018-03-30T03:47:58.413Z,1001.7
2018-03-30T03:49:01.125Z,1001.7
2018-03-30T03:50:03.846Z,1001.8
2018-03-30T03:51:06.564Z,1001.8
2018-03-30T03:52:08.996Z,1001.8
2018-03-30T03:53:11.422Z,1001.8
2018-03-30T03:54:14.128Z,1001.8
2018-03-30T03:55:16.548Z,1001.8
2018-03-30T03:56:18.971Z,1001.8
2018-03-30T03:57:21.414Z,1001.8
2018-03-30T03:58:23.839Z,1001.8
2018-03-30T03:59:26.272Z,1001.8
2018-03-30T04:00:28.702Z,1001.8
2018-03-30T04:01:31.425Z,1001.8
2018-03-30T04:02:34.138Z,1001.8
2018-03-30T04:03:36.567Z,1001.8
2018-03-30T04:04:39.277Z,1001.8
2018-03-30T04:05:41.711Z,1001.9
2018-03-30T04:06:44.132Z,1001.9
2018-03-30T04:07:46.563Z,1002
2018-03-30T04:08:48.987Z,1002
2018-03-30T04:09:51.421Z,1002
2018-03-30T04:10:53.865Z,1002
2018-03-30T04:11:56.277Z,1002
2018-03-30T04:12:58.698Z,1002
2018-03-30T04:14:01.426Z,1002.1
2018-03-30T04:15:03.845Z,1002.1
2018-03-30T04:16:06.281Z,1002.1
2018-03-30T04:17:08.717Z,1002
2018-03-30T04:18:11.140Z,1002.1
2018-03-30T04:19:13.572Z,1002.1
2018-03-30T04:20:15.993Z,1002
2018-03-30T04:21:18.419Z,1002
2018-03-30T04:22:20.847Z,1002
2018-03-30T04:23:23.539Z,1001.9
2018-03-30T04:24:26.257Z,1001.9
2018-03-30T04:25:28.690Z,1001.8
2018-03-30T04:26:31.410Z,1001.8
2018-03-30T04:27:34.122Z,1001.8
2018-03-30T04:28:36.550Z,1001.8
2018-03-30T04:29:38.979Z,1001.9
2018-03-30T04:30:41.388Z,1001.9
2018-03-30T04:31:43.817Z,1001.8
2018-03-30T04:32:46.550Z,1001.9
2018-03-30T04:33:48.970Z,1001.9
2018-03-30T04:34:51.400Z,1001.9
2018-03-30T04:35:54.107Z,1001.9
2018-03-30T04:36:56.530Z,1001.9
2018-03-30T04:37:58.967Z,1001.9
2018-03-30T04:39:01.394Z,1001.9
2018-03-30T04:40:03.814Z,1001.8
2018-03-30T04:41:06.250Z,1001.8
2018-03-30T04:42:08.676Z,1001.8
2018-03-30T04:43:11.098Z,1001.8
2018-03-30T04:44:13.523Z,1001.8
2018-03-30T04:45:15.941Z,1001.8
2018-03-30T04:46:18.358Z,1001.8
2018-03-30T04:47:20.787Z,1001.8
2018-03-30T04:48:23.207Z,1001.8
2018-03-30T04:49:25.630Z,1001.8
2018-03-30T04:50:28.062Z,1001.8
2018-03-30T04:51:30.487Z,1001.8
2018-03-30T04:52:33.202Z,1001.8
2018-03-30T04:53:35.913Z,1001.7
2018-03-30T04:54:38.337Z,1001.7
2018-03-30T04:55:40.759Z,1001.7
2018-03-30T04:56:43.506Z,1001.7
2018-03-30T04:57:45.928Z,1001.6
2018-03-30T04:58:48.951Z,1001.6
2018-03-30T04:59:51.378Z,1001.5
2018-03-30T05:00:53.796Z,1001.6
2018-03-30T05:01:56.228Z,1001.5
2018-03-30T05:02:58.949Z,1001.5
2018-03-30T05:04:01.653Z,1001.5
2018-03-30T05:05:04.376Z,1001.6
2018-03-30T05:06:06.810Z,1001.6
2018-03-30T05:07:09.236Z,1001.5
2018-03-30T05:08:11.658Z,1001.5
2018-03-30T05:09:14.088Z,1001.5
2018-03-30T05:10:16.509Z,1001.5
2018-03-30T05:11:19.219Z,1001.4
2018-03-30T05:12:21.644Z,1001.5
2018-03-30T05:13:24.059Z,1001.5
2018-03-30T05:14:26.489Z,1001.4
2018-03-30T05:15:29.196Z,1001.5
2018-03-30T05:16:31.636Z,1001.5
2018-03-30T05:17:34.040Z,1001.5
2018-03-30T05:18:36.470Z,1001.5
2018-03-30T05:19:38.897Z,1001.5
2018-03-30T05:20:41.336Z,1001.5
2018-03-30T05:21:43.773Z,1001.5
2018-03-30T05:22:46.767Z,1001.5
2018-03-30T05:23:49.197Z,1001.5
2018-03-30T05:24:51.617Z,1001.5
2018-03-30T05:25:54.330Z,1001.5
2018-03-30T05:26:56.747Z,1001.5
2018-03-30T05:27:59.191Z,1001.5
2018-03-30T05:29:01.609Z,1001.5
2018-03-30T05:30:04.033Z,1001.5
2018-03-30T05:31:06.464Z,1001.5
2018-03-30T05:32:09.182Z,1001.5
2018-03-30T05:33:11.616Z,1001.5
2018-03-30T05:34:14.044Z,1001.5
2018-03-30T05:35:16.464Z,1001.5
2018-03-30T05:36:18.893Z,1001.5
2018-03-30T05:37:21.310Z,1001.5
2018-03-30T05:38:23.738Z,1001.5
2018-03-30T05:39:26.156Z,1001.5
2018-03-30T05:40:28.583Z,1001.5
2018-03-30T05:41:31.579Z,1001.5
2018-03-30T05:42:34.303Z,1001.6
2018-03-30T05:43:36.724Z,1001.6
2018-03-30T05:44:39.151Z,1001.6
2018-03-30T05:45:41.860Z,1001.6
2018-03-30T05:46:44.588Z,1001.6
2018-03-30T05:47:47.004Z,1001.6
2018-03-30T05:48:49.436Z,1001.7
2018-03-30T05:49:52.181Z,1001.7
2018-03-30T05:50:54.612Z,1001.8
2018-03-30T05:51:57.325Z,1001.7
2018-03-30T05:52:59.758Z,1001.7
2018-03-30T05:54:02.171Z,1001.8
2018-03-30T05:55:04.888Z,1001.8
2018-03-30T05:56:07.902Z,1001.8
2018-03-30T05:57:10.327Z,1001.8
2018-03-30T05:58:13.044Z,1001.8
2018-03-30T05:59:15.470Z,1001.8
2018-03-30T06:00:17.897Z,1001.8
2018-03-30T06:01:20.335Z,1001.8
2018-03-30T06:02:22.831Z,1001.8
2018-03-30T06:03:25.189Z,1001.9
2018-03-30T06:04:27.614Z,1001.8
2018-03-30T06:05:30.902Z,1001.9
2018-03-30T06:06:33.330Z,1001.9
2018-03-30T06:07:35.759Z,1001.9
2018-03-30T06:08:38.466Z,1002
2018-03-30T06:09:41.191Z,1001.9
2018-03-30T06:10:43.612Z,1001.9
2018-03-30T06:11:46.030Z,1001.9
2018-03-30T06:12:48.468Z,1001.9
2018-03-30T06:13:50.900Z,1001.9
2018-03-30T06:14:53.687Z,1002
2018-03-30T06:15:56.398Z,1002
2018-03-30T06:16:58.828Z,1002
2018-03-30T06:18:01.255Z,1002
2018-03-30T06:19:04.013Z,1002
2018-03-30T06:20:06.399Z,1002
2018-03-30T06:21:08.815Z,1002.1
2018-03-30T06:22:11.248Z,1002
2018-03-30T06:23:13.675Z,1002
2018-03-30T06:24:16.107Z,1002
2018-03-30T06:25:18.819Z,1002
2018-03-30T06:26:21.532Z,1002
2018-03-30T06:27:23.967Z,1002
2018-03-30T06:28:26.394Z,1002.1
2018-03-30T06:29:28.828Z,1002.1
2018-03-30T06:30:31.252Z,1002.1
2018-03-30T06:31:33.679Z,1002.1
2018-03-30T06:32:36.106Z,1002.1
2018-03-30T06:33:38.530Z,1002.1
2018-03-30T06:34:40.957Z,1002
2018-03-30T06:35:43.385Z,1002.1
2018-03-30T06:36:45.810Z,1002.1
2018-03-30T06:37:48.233Z,1002
2018-03-30T06:38:50.655Z,1002.1
2018-03-30T06:39:53.085Z,1002.1
2018-03-30T06:40:55.510Z,1002.1
2018-03-30T06:41:57.944Z,1002.1
2018-03-30T06:43:00.373Z,1002.1
2018-03-30T06:44:02.810Z,1002.1
2018-03-30T06:45:05.525Z,1002.1
2018-03-30T06:46:07.940Z,1002
2018-03-30T06:47:10.690Z,1002.1
2018-03-30T06:48:13.394Z,1002
2018-03-30T06:49:16.106Z,1002.1
2018-03-30T06:50:18.815Z,1002.1
2018-03-30T06:51:21.237Z,1002.1
2018-03-30T06:52:23.660Z,1002.1
2018-03-30T06:53:26.391Z,1002.1
2018-03-30T06:54:28.816Z,1002
2018-03-30T06:55:31.243Z,1002
2018-03-30T06:56:33.672Z,1002
2018-03-30T06:57:36.101Z,1002
2018-03-30T06:58:38.521Z,1002
2018-03-30T06:59:40.944Z,1002
2018-03-30T07:00:43.385Z,1002.1
2018-03-30T07:01:45.796Z,1002.1
2018-03-30T07:02:48.212Z,1002
2018-03-30T07:03:50.588Z,1002.1
2018-03-30T07:04:52.957Z,1002.1
2018-03-30T07:05:55.340Z,1002.1
2018-03-30T07:06:58.066Z,1002.1
2018-03-30T07:08:00.461Z,1002.1
2018-03-30T07:09:02.815Z,1002
2018-03-30T07:10:05.207Z,1002.1
2018-03-30T07:11:07.589Z,1002.1
2018-03-30T07:12:09.960Z,1002.1
2018-03-30T07:13:12.343Z,1002
2018-03-30T07:14:14.709Z,1002.1
2018-03-30T07:15:17.372Z,1002
2018-03-30T07:16:19.761Z,1002
2018-03-30T07:17:22.149Z,1002.1
2018-03-30T07:18:24.519Z,1002.1
2018-03-30T07:19:26.914Z,1002.1
2018-03-30T07:20:29.281Z,1002.1
2018-03-30T07:21:31.946Z,1002.1
2018-03-30T07:22:34.681Z,1002.1
2018-03-30T07:23:37.693Z,1002.1
2018-03-30T07:24:40.059Z,1002.1
2018-03-30T07:25:42.426Z,1002.1
2018-03-30T07:26:44.819Z,1002.1
2018-03-30T07:27:47.198Z,1002.1
2018-03-30T07:28:49.850Z,1002.1
2018-03-30T07:29:52.230Z,1002.2
2018-03-30T07:30:54.616Z,1002.2
2018-03-30T07:31:56.995Z,1002.2
2018-03-30T07:32:59.380Z,1002.2
2018-03-30T07:34:01.741Z,1002.2
2018-03-30T07:35:04.121Z,1002.2
2018-03-30T07:36:06.790Z,1002.2
2018-03-30T07:37:09.169Z,1002.2
2018-03-30T07:38:11.551Z,1002.2
2018-03-30T07:39:13.926Z,1002.2
2018-03-30T07:40:16.300Z,1002.2
2018-03-30T07:41:18.685Z,1002.2
2018-03-30T07:42:21.354Z,1002.2
2018-03-30T07:43:23.726Z,1002.2
2018-03-30T07:44:26.118Z,1002.2
2018-03-30T07:45:28.491Z,1002.2
2018-03-30T07:46:30.867Z,1002.2
2018-03-30T07:47:33.260Z,1002.2
2018-03-30T07:48:35.915Z,1002.3
2018-03-30T07:49:38.288Z,1002.2
2018-03-30T07:50:40.681Z,1002.2
2018-03-30T07:51:43.615Z,1002.2
2018-03-30T07:52:46.564Z,1002.3
2018-03-30T07:53:49.221Z,1002.3
2018-03-30T07:54:51.878Z,1002.2
2018-03-30T07:55:54.257Z,1002.2
2018-03-30T07:56:56.629Z,1002.2
2018-03-30T07:57:59.281Z,1002.1
2018-03-30T07:59:01.659Z,1002.2
2018-03-30T08:00:04.331Z,1002.1
2018-03-30T08:01:06.700Z,1002
2018-03-30T08:02:09.090Z,1002.1
2018-03-30T08:03:11.462Z,1002.2
2018-03-30T08:04:13.851Z,1002.2
2018-03-30T08:05:16.227Z,1002.2
2018-03-30T08:06:18.600Z,1002.2
2018-03-30T08:07:20.971Z,1002.1
2018-03-30T08:08:23.349Z,1002.1
2018-03-30T08:09:25.725Z,1002.1
2018-03-30T08:10:28.102Z,1002.1
2018-03-30T08:11:30.472Z,1002.2
2018-03-30T08:12:33.124Z,1002.2
2018-03-30T08:13:35.781Z,1002.2
2018-03-30T08:14:38.174Z,1002.2
2018-03-30T08:15:40.532Z,1002.2
2018-03-30T08:16:42.919Z,1002.2
2018-03-30T08:17:45.302Z,1002.2
2018-03-30T08:18:47.676Z,1002.2
2018-03-30T08:19:50.055Z,1002.2
2018-03-30T08:20:52.442Z,1002.1
2018-03-30T08:21:54.806Z,1002.2
2018-03-30T08:22:57.190Z,1002.2
2018-03-30T08:23:59.559Z,1002.2
2018-03-30T08:25:01.942Z,1002.1
2018-03-30T08:26:04.901Z,1002.1
2018-03-30T08:27:07.277Z,1002.1
2018-03-30T08:28:09.660Z,1002.1
2018-03-30T08:29:12.036Z,1002.1
2018-03-30T08:30:14.419Z,1002.1
2018-03-30T08:31:16.805Z,1002.1
2018-03-30T08:32:19.173Z,1002.1
2018-03-30T08:33:21.560Z,1002.1
2018-03-30T08:34:23.933Z,1002.1
2018-03-30T08:35:26.297Z,1002.1
2018-03-30T08:36:28.741Z,1002
2018-03-30T08:37:31.401Z,1002.1
2018-03-30T08:38:33.785Z,1002
2018-03-30T08:39:36.173Z,1002
2018-03-30T08:40:38.533Z,1002.1
2018-03-30T08:41:40.920Z,1002
2018-03-30T08:42:43.298Z,1002.1
2018-03-30T08:43:45.675Z,1002
2018-03-30T08:44:48.059Z,1002
2018-03-30T08:45:50.445Z,1002
2018-03-30T08:46:52.830Z,1002
2018-03-30T08:47:55.220Z,1002
2018-03-30T08:48:57.612Z,1002
2018-03-30T08:49:59.985Z,1002
2018-03-30T08:51:02.365Z,1002.1
2018-03-30T08:52:04.745Z,1002.1
2018-03-30T08:53:07.134Z,1002.1
2018-03-30T08:54:09.518Z,1002.1
2018-03-30T08:55:11.913Z,1002.1
2018-03-30T08:56:14.299Z,1002.1
2018-03-30T08:57:16.953Z,1002.1
2018-03-30T08:58:19.347Z,1002
2018-03-30T08:59:22.036Z,1002
2018-03-30T09:00:24.412Z,1002
2018-03-30T09:01:26.793Z,1002.1
2018-03-30T09:02:29.175Z,1002.1
2018-03-30T09:03:31.561Z,1002.1
2018-03-30T09:04:33.936Z,1002.1
2018-03-30T09:05:36.322Z,1002.1
2018-03-30T09:06:38.701Z,1002.1
2018-03-30T09:07:41.371Z,1002.1
2018-03-30T09:08:43.757Z,1002.1
2018-03-30T09:09:46.154Z,1002
2018-03-30T09:10:48.525Z,1002
2018-03-30T09:11:50.901Z,1002.1
2018-03-30T09:12:53.297Z,1002
2018-03-30T09:13:55.712Z,1002
2018-03-30T09:14:58.411Z,1002
2018-03-30T09:16:00.797Z,1002.1
2018-03-30T09:17:03.178Z,1002
2018-03-30T09:18:05.561Z,1002
2018-03-30T09:19:07.949Z,1002
2018-03-30T09:20:10.340Z,1002
2018-03-30T09:21:12.729Z,1002
2018-03-30T09:22:15.115Z,1002
2018-03-30T09:23:17.509Z,1002.1
2018-03-30T09:24:20.182Z,1002.1
2018-03-30T09:25:22.565Z,1002
2018-03-30T09:26:24.947Z,1002
2018-03-30T09:27:27.338Z,1002
2018-03-30T09:28:29.734Z,1002
2018-03-30T09:29:32.105Z,1002
2018-03-30T09:30:34.484Z,1001.9
2018-03-30T09:31:36.864Z,1001.9
2018-03-30T09:32:39.330Z,1002
2018-03-30T09:33:41.657Z,1001.9
2018-03-30T09:34:44.046Z,1001.9
2018-03-30T09:35:46.764Z,1001.9
2018-03-30T09:36:49.149Z,1001.9
2018-03-30T09:37:51.547Z,1001.9
2018-03-30T09:38:53.936Z,1001.9
2018-03-30T09:39:56.308Z,1001.9
2018-03-30T09:40:58.700Z,1001.9
2018-03-30T09:42:01.090Z,1001.9
2018-03-30T09:43:03.748Z,1001.9
2018-03-30T09:44:06.425Z,1001.9
2018-03-30T09:45:08.806Z,1001.9
2018-03-30T09:46:11.189Z,1001.9
2018-03-30T09:47:13.585Z,1001.9
2018-03-30T09:48:15.966Z,1001.9
2018-03-30T09:49:18.352Z,1001.9
2018-03-30T09:50:20.731Z,1001.9
2018-03-30T09:51:23.114Z,1001.9
2018-03-30T09:52:25.497Z,1001.8
2018-03-30T09:53:27.886Z,1001.8
2018-03-30T09:54:30.556Z,1001.8
2018-03-30T09:55:32.935Z,1001.8
2018-03-30T09:56:35.616Z,1001.8
2018-03-30T09:57:37.999Z,1001.8
2018-03-30T09:58:40.373Z,1001.8
2018-03-30T09:59:42.765Z,1001.8
2018-03-30T10:00:45.144Z,1001.8
2018-03-30T10:01:47.536Z,1001.7
2018-03-30T10:02:49.928Z,1001.8
2018-03-30T10:03:52.308Z,1001.7
2018-03-30T10:04:54.690Z,1001.8
2018-03-30T10:05:57.083Z,1001.8
2018-03-30T10:06:59.746Z,1001.8
2018-03-30T10:08:02.425Z,1001.8
2018-03-30T10:09:05.097Z,1001.8
2018-03-30T10:10:07.481Z,1001.8
2018-03-30T10:11:09.874Z,1001.8
2018-03-30T10:12:12.266Z,1001.8
2018-03-30T10:13:14.926Z,1001.7
2018-03-30T10:14:17.314Z,1001.8
2018-03-30T10:15:19.699Z,1001.8
2018-03-30T10:16:22.079Z,1001.8
2018-03-30T10:17:24.750Z,1001.8
2018-03-30T10:18:27.135Z,1001.8
2018-03-30T10:19:29.788Z,1001.8
2018-03-30T10:20:32.191Z,1001.8
2018-03-30T10:21:34.855Z,1001.8
2018-03-30T10:22:37.221Z,1001.7
2018-03-30T10:23:39.610Z,1001.7
2018-03-30T10:24:41.983Z,1001.7
2018-03-30T10:25:44.369Z,1001.7
2018-03-30T10:26:46.755Z,1001.7
2018-03-30T10:27:49.460Z,1001.7
2018-03-30T10:28:51.809Z,1001.7
2018-03-30T10:29:54.201Z,1001.8
2018-03-30T10:30:56.869Z,1001.7
2018-03-30T10:31:59.256Z,1001.6
2018-03-30T10:33:01.706Z,1001.6
2018-03-30T10:34:04.310Z,1001.6
2018-03-30T10:35:06.691Z,1001.6
2018-03-30T10:36:09.363Z,1001.7
2018-03-30T10:37:11.736Z,1001.7
2018-03-30T10:38:14.137Z,1001.6
2018-03-30T10:39:16.521Z,1001.7
2018-03-30T10:40:18.905Z,1001.7
2018-03-30T10:41:21.289Z,1001.7
2018-03-30T10:42:23.676Z,1001.7
2018-03-30T10:43:26.332Z,1001.6
2018-03-30T10:44:28.733Z,1001.7
2018-03-30T10:45:31.113Z,1001.7
2018-03-30T10:46:33.494Z,1001.7
2018-03-30T10:47:35.882Z,1001.7
2018-03-30T10:48:38.263Z,1001.7
2018-03-30T10:49:40.645Z,1001.8
2018-03-30T10:50:43.037Z,1001.7
2018-03-30T10:51:45.420Z,1001.7
2018-03-30T10:52:47.808Z,1001.7
2018-03-30T10:53:50.183Z,1001.7
2018-03-30T10:54:52.851Z,1001.8
2018-03-30T10:55:55.243Z,1001.7
2018-03-30T10:56:57.630Z,1001.7
2018-03-30T10:58:00.016Z,1001.7
2018-03-30T10:59:02.676Z,1001.7
2018-03-30T11:00:05.356Z,1001.7
2018-03-30T11:01:08.025Z,1001.7
2018-03-30T11:02:10.404Z,1001.7
2018-03-30T11:03:12.792Z,1001.5
2018-03-30T11:04:15.173Z,1001.6
2018-03-30T11:05:17.562Z,1001.5
2018-03-30T11:06:20.282Z,1001.5
2018-03-30T11:07:22.669Z,1001.5
2018-03-30T11:08:25.041Z,1001.5
2018-03-30T11:09:27.428Z,1001.5
2018-03-30T11:10:30.093Z,1001.4
2018-03-30T11:11:32.536Z,1001.4
2018-03-30T11:12:34.860Z,1001.4
2018-03-30T11:13:37.526Z,1001.3
2018-03-30T11:14:39.918Z,1001.3
2018-03-30T11:15:42.921Z,1001.3
2018-03-30T11:16:45.306Z,1001.3
2018-03-30T11:17:47.969Z,1001.3
2018-03-30T11:18:50.345Z,1001.3
2018-03-30T11:19:52.744Z,1001.3
2018-03-30T11:20:55.135Z,1001.2
2018-03-30T11:21:57.510Z,1001.2
2018-03-30T11:22:59.905Z,1001.3
2018-03-30T11:24:02.284Z,1001.2
2018-03-30T11:25:04.670Z,1001.2
2018-03-30T11:26:07.330Z,1001.1
2018-03-30T11:27:09.725Z,1001.1
2018-03-30T11:28:12.103Z,1001.1
2018-03-30T11:29:14.500Z,1001.2
2018-03-30T11:30:16.883Z,1001.1
2018-03-30T11:31:19.264Z,1001.2
2018-03-30T11:32:21.661Z,1001.2
2018-03-30T11:33:24.044Z,1001.2
2018-03-30T11:34:26.429Z,1001.1
2018-03-30T11:35:29.104Z,1001.1
2018-03-30T11:36:31.479Z,1001.1
2018-03-30T11:37:34.156Z,1001.2
2018-03-30T11:38:36.822Z,1001.2
2018-03-30T11:39:39.220Z,1001.2
2018-03-30T11:40:41.936Z,1001.2
2018-03-30T11:41:44.388Z,1001.1
2018-03-30T11:42:47.177Z,1001.1
2018-03-30T11:43:49.896Z,1001
2018-03-30T11:44:52.345Z,1001.1
2018-03-30T11:45:54.796Z,1001.1
2018-03-30T11:46:57.236Z,1001.1
2018-03-30T11:47:59.687Z,1001
2018-03-30T11:49:02.134Z,1001
2018-03-30T11:50:05.165Z,1001
2018-03-30T11:51:07.719Z,1001
2018-03-30T11:52:10.470Z,1001
2018-03-30T11:53:12.918Z,1001
2018-03-30T11:54:15.352Z,1001
2018-03-30T11:55:17.876Z,1001
2018-03-30T11:56:20.695Z,1001
2018-03-30T11:57:23.361Z,1001
2018-03-30T11:58:25.756Z,1001
2018-03-30T11:59:28.315Z,1001
2018-03-30T12:00:30.996Z,1001
2018-03-30T12:01:33.385Z,1001
2018-03-30T12:02:35.780Z,1001
2018-03-30T12:03:38.165Z,1001
2018-03-30T12:04:40.551Z,1001
2018-03-30T12:05:43.211Z,1000.9
2018-03-30T12:06:45.595Z,1000.9
2018-03-30T12:07:48.289Z,1000.9
2018-03-30T12:08:50.646Z,1000.9
2018-03-30T12:09:53.018Z,1000.8
2018-03-30T12:10:55.402Z,1000.8
2018-03-30T12:11:57.788Z,1000.8
2018-03-30T12:13:00.458Z,1000.8
2018-03-30T12:14:02.844Z,1000.8
2018-03-30T12:15:05.234Z,1000.9
2018-03-30T12:16:07.622Z,1000.8
2018-03-30T12:17:10.015Z,1000.8
2018-03-30T12:18:12.402Z,1000.8
2018-03-30T12:19:14.770Z,1000.8
2018-03-30T12:20:17.158Z,1000.8
2018-03-30T12:21:19.545Z,1000.8
2018-03-30T12:22:21.927Z,1000.7
2018-03-30T12:23:24.303Z,1000.8
2018-03-30T12:24:26.706Z,1000.8
2018-03-30T12:25:29.089Z,1000.8
2018-03-30T12:26:31.458Z,1000.8
2018-03-30T12:27:33.850Z,1000.8
2018-03-30T12:28:36.235Z,1000.8
2018-03-30T12:29:38.622Z,1000.8
2018-03-30T12:30:41.008Z,1000.8
2018-03-30T12:31:43.668Z,1000.8
2018-03-30T12:32:46.049Z,1000.7
2018-03-30T12:33:48.445Z,1000.7
2018-03-30T12:34:51.134Z,1000.7
2018-03-30T12:35:53.804Z,1000.7
2018-03-30T12:36:56.469Z,1000.6
2018-03-30T12:37:58.850Z,1000.5
2018-03-30T12:39:01.244Z,1000.5
2018-03-30T12:40:03.625Z,1000.5
2018-03-30T12:41:06.009Z,1000.4
2018-03-30T12:42:08.399Z,1000.5
2018-03-30T12:43:11.081Z,1000.3
2018-03-30T12:44:13.733Z,1000.4
2018-03-30T12:45:16.141Z,1000.3
2018-03-30T12:46:18.558Z,1000.3
2018-03-30T12:47:21.272Z,1000.2
2018-03-30T12:48:23.947Z,1000.3
2018-03-30T12:49:26.339Z,1000.2
2018-03-30T12:50:28.711Z,1000.2
2018-03-30T12:51:31.099Z,1000.2
2018-03-30T12:52:33.477Z,1000.2
2018-03-30T12:53:36.144Z,1000.2
2018-03-30T12:54:38.554Z,1000.1
2018-03-30T12:55:41.532Z,1000.2
2018-03-30T12:56:43.914Z,1000.1
2018-03-30T12:57:46.321Z,1000.1
2018-03-30T12:58:48.717Z,1000.1
2018-03-30T12:59:51.402Z,1000
2018-03-30T13:00:54.125Z,1000.1
2018-03-30T13:01:56.512Z,1000
2018-03-30T13:02:59.214Z,1000
2018-03-30T13:04:01.646Z,1000
2018-03-30T13:05:04.613Z,1000
2018-03-30T13:06:07.006Z,999.9